Time;durP1;ratioP1;P1;durP2;ratioP2;P2;SDS_P1;SDS_P2;PMS_P1;PMS_P2;Temp;Humidity;BMP_temperature;BMP_pressure;BME280_temperature;BME280_humidity;BME280_pressure;Samples;Min_cycle;Max_cycle;Signal;HPM_P1;HPM_P2
2022/01/19 00:00:00;;;;;;;14.75;6.97;;;;;;;2.83;42.53;102820.72;5050391;28;20448;-69
2022/01/19 00:02:27;;;;;;;13.60;6.63;;;;;;;2.90;42.58;102828.47;5051170;28;20492;-70
2022/01/19 00:04:54;;;;;;;24.73;15.85;;;;;;;2.86;42.41;102829.41;5050717;28;20937;-69
2022/01/19 00:07:21;;;;;;;17.30;10.20;;;;;;;2.92;42.67;102834.53;5049724;28;20572;-69
2022/01/19 00:09:48;;;;;;;15.98;9.05;;;;;;;2.78;42.54;102833.91;5050809;28;20496;-69
2022/01/19 00:12:14;;;;;;;22.70;13.30;;;;;;;2.86;42.55;102832.03;5050669;28;20495;-69
2022/01/19 00:14:41;;;;;;;16.17;9.48;;;;;;;2.75;42.80;102828.72;5050593;28;20500;-69
2022/01/19 00:17:10;;;;;;;10.85;6.22;;;;;;;2.72;42.73;102829.63;5050855;28;20449;-69
2022/01/19 00:19:37;;;;;;;9.70;4.80;;;;;;;2.94;42.35;102830.13;5035527;28;20479;-68
2022/01/19 00:22:04;;;;;;;10.60;5.18;;;;;;;2.86;42.60;102842.50;5050862;28;21504;-69
2022/01/19 00:24:30;;;;;;;12.48;6.88;;;;;;;2.82;42.39;102838.19;5050413;28;20421;-69
2022/01/19 00:26:57;;;;;;;10.98;6.10;;;;;;;2.78;42.72;102833.91;5050731;28;20496;-69
2022/01/19 00:29:24;;;;;;;11.05;5.53;;;;;;;2.91;42.26;102845.03;5050638;28;20440;-69
2022/01/19 00:31:51;;;;;;;13.13;7.20;;;;;;;2.87;42.61;102852.06;5050651;28;20474;-69
2022/01/19 00:34:20;;;;;;;9.93;4.85;;;;;;;2.74;42.73;102837.47;5050517;28;20428;-69
2022/01/19 00:36:46;;;;;;;12.75;6.90;;;;;;;2.88;42.50;102826.75;5050504;28;20409;-69
2022/01/19 00:39:13;;;;;;;9.43;4.65;;;;;;;2.93;42.48;102844.09;5050023;28;20499;-69
2022/01/19 00:41:40;;;;;;;15.05;8.68;;;;;;;2.86;42.47;102836.38;5050137;28;20412;-68
2022/01/19 00:44:07;;;;;;;7.00;3.97;;;;;;;2.84;42.67;102825.06;5050087;28;20495;-70
2022/01/19 00:46:34;;;;;;;12.40;6.50;;;;;;;2.92;42.45;102828.41;5050232;28;20511;-69
2022/01/19 00:49:01;;;;;;;7.95;4.20;;;;;;;2.82;42.90;102812.03;5050191;28;20420;-69
2022/01/19 00:51:30;;;;;;;16.15;9.32;;;;;;;2.94;42.43;102814.44;5050042;28;20412;-69
2022/01/19 00:53:56;;;;;;;11.18;7.40;;;;;;;2.88;42.46;102809.31;5050158;28;20507;-69
2022/01/19 00:56:27;;;;;;;12.70;6.88;;;;;;;3.00;42.20;102818.69;5050100;28;20417;-69
2022/01/19 00:58:54;;;;;;;12.00;5.55;;;;;;;2.93;42.23;102828.41;5049985;28;20926;-69
2022/01/19 01:01:21;;;;;;;9.75;4.95;;;;;;;2.94;42.02;102818.78;5050468;28;20496;-69
2022/01/19 01:03:48;;;;;;;12.10;6.33;;;;;;;3.04;42.03;102824.72;5049830;28;20428;-70
2022/01/19 01:06:15;;;;;;;14.48;7.68;;;;;;;2.99;42.24;102823.06;5049660;28;20870;-69
2022/01/19 01:08:44;;;;;;;19.00;9.57;;;;;;;3.01;42.03;102816.03;5049682;28;20416;-69
2022/01/19 01:11:11;;;;;;;16.08;7.88;;;;;;;3.00;42.03;102811.72;5049667;28;20906;-69
2022/01/19 01:16:33;;;;;;;18.33;8.50;;;;;;;3.11;41.63;102811.50;5049589;28;20412;-70
2022/01/19 01:19:02;;;;;;;23.52;12.85;;;;;;;3.24;41.52;102819.13;5035029;28;20404;-69
2022/01/19 01:21:28;;;;;;;49.45;23.20;;;;;;;3.19;41.51;102812.22;5049487;28;20495;-69
2022/01/19 01:23:57;;;;;;;16.67;8.55;;;;;;;3.15;41.67;102820.19;5049853;28;20415;-69
2022/01/19 01:26:24;;;;;;;18.05;8.38;;;;;;;3.05;41.80;102823.84;5049261;28;20520;-70
2022/01/19 01:28:52;;;;;;;19.35;9.80;;;;;;;3.03;41.84;102833.50;5049295;28;20504;-69
2022/01/19 01:31:19;;;;;;;51.27;24.47;;;;;;;2.99;41.97;102823.06;5049631;28;20495;-69
2022/01/19 01:33:46;;;;;;;14.27;7.80;;;;;;;3.03;42.01;102815.16;5049319;28;20970;-69
2022/01/19 01:36:13;;;;;;;29.35;16.00;;;;;;;3.07;41.83;102809.84;5048460;28;20449;-69
2022/01/19 01:38:40;;;;;;;20.33;11.32;;;;;;;3.10;41.79;102809.78;5049596;28;20467;-69
2022/01/19 01:41:13;;;;;;;25.50;15.17;;;;;;;2.96;42.12;102804.78;5049557;28;20416;-70
2022/01/19 01:43:41;;;;;;;20.33;11.13;;;;;;;2.88;42.14;102806.69;5049593;28;20527;-69
2022/01/19 01:46:12;;;;;;;39.53;24.63;;;;;;;2.95;42.40;102797.81;5049471;28;20444;-70
2022/01/19 01:48:43;;;;;;;14.65;7.13;;;;;;;3.02;42.01;102790.72;5049396;28;20417;-69
2022/01/19 01:53:55;;;;;;;17.48;10.90;;;;;;;2.89;42.25;102790.06;5049328;28;20415;-70
2022/01/19 01:56:24;;;;;;;14.32;9.20;;;;;;;2.92;42.25;102787.41;5049397;28;20496;-69
2022/01/19 01:58:51;;;;;;;11.73;6.43;;;;;;;2.90;42.26;102791.81;5049078;28;20610;-69
2022/01/19 02:01:18;;;;;;;24.95;16.40;;;;;;;2.86;42.03;102782.28;5049324;28;20431;-70
2022/01/19 02:03:46;;;;;;;13.05;8.90;;;;;;;2.83;42.20;102789.31;5049073;28;20907;-69
2022/01/19 02:09:01;;;;;;;10.02;5.28;;;;;;;2.65;42.52;102796.56;5046941;28;20423;-70
2022/01/19 02:23:04;;;;;;;13.52;7.38;;;;;;;2.55;43.08;102784.53;5050113;28;20408;-69
2022/01/19 02:25:37;;;;;;;15.65;9.48;;;;;;;2.74;42.64;102787.72;5048754;28;20746;-70
2022/01/19 02:36:51;;;;;;;8.55;4.30;;;;;;;2.59;43.57;102784.44;5052602;28;20408;-69
2022/01/19 02:42:07;;;;;;;7.78;4.25;;;;;;;2.52;43.89;102795.06;5052422;28;20400;-70
2022/01/19 02:46:37;;;;;;;8.07;4.75;;;;;;;2.49;43.98;102795.94;5052628;28;20412;-69
2022/01/19 02:50:12;;;;;;;8.95;5.18;;;;;;;2.69;43.73;102792.16;5052077;28;20426;-69
2022/01/19 02:52:41;;;;;;;9.53;4.80;;;;;;;2.73;43.64;102796.47;5052581;28;20441;-69
2022/01/19 02:55:08;;;;;;;9.25;4.38;;;;;;;2.57;43.93;102793.22;5052155;28;20500;-69
2022/01/19 02:57:37;;;;;;;16.67;11.18;;;;;;;2.54;44.18;102790.66;5052055;28;20499;-70
2022/01/19 03:11:06;;;;;;;11.03;6.33;;;;;;;2.65;43.95;102778.25;5051952;28;20408;-69
2022/01/19 03:13:33;;;;;;;10.30;5.03;;;;;;;2.53;44.45;102792.41;5052143;28;20499;-70
2022/01/19 03:16:00;;;;;;;10.50;5.10;;;;;;;2.57;44.33;102782.75;5052156;28;20447;-69
2022/01/19 03:18:27;;;;;;;9.63;5.72;;;;;;;2.48;44.67;102786.41;5043018;28;20882;-71
2022/01/19 03:20:54;;;;;;;10.20;5.20;;;;;;;2.56;44.59;102784.50;5046403;28;20494;-69
2022/01/19 03:23:22;;;;;;;10.70;5.13;;;;;;;2.61;44.63;102773.97;5051507;28;20953;-69
2022/01/19 03:25:49;;;;;;;10.18;5.47;;;;;;;2.51;44.84;102778.47;5051419;28;20526;-69
2022/01/19 03:28:17;;;;;;;9.70;5.30;;;;;;;2.49;44.90;102779.41;5051430;28;20440;-69
2022/01/19 03:30:45;;;;;;;10.52;5.57;;;;;;;2.40;45.10;102775.19;5051406;28;20496;-69
2022/01/19 03:33:12;;;;;;;10.30;5.80;;;;;;;2.34;45.52;102777.91;5051319;28;20506;-69
2022/01/19 03:35:39;;;;;;;18.75;11.93;;;;;;;2.28;45.32;102791.94;5051641;28;20416;-69
2022/01/19 03:38:07;;;;;;;24.25;12.50;;;;;;;2.39;45.48;102790.03;5033771;28;20491;-69
2022/01/19 03:40:36;;;;;;;13.77;9.18;;;;;;;2.34;45.38;102793.59;5051221;28;20957;-69
2022/01/19 03:43:05;;;;;;;25.27;21.95;;;;;;;2.39;45.75;102800.50;5050125;28;20419;-69
2022/01/19 03:45:33;;;;;;;19.38;15.45;;;;;;;2.35;45.84;102808.38;5051093;28;20470;-69
2022/01/19 03:48:15;;;;;;;25.13;22.73;;;;;;;2.39;45.53;102802.22;5051206;28;20432;-69
2022/01/19 03:50:43;;;;;;;14.55;10.23;;;;;;;2.32;45.96;102800.59;5051699;28;20416;-69
2022/01/19 03:53:10;;;;;;;17.27;15.35;;;;;;;2.39;45.76;102796.97;5051031;28;20412;-69
2022/01/19 03:55:38;;;;;;;29.53;26.93;;;;;;;2.31;46.12;102804.97;5051200;28;20504;-70
2022/01/19 03:58:05;;;;;;;17.60;12.73;;;;;;;2.38;45.91;102801.38;5050882;28;20869;-69
2022/01/19 04:00:35;;;;;;;15.40;11.63;;;;;;;2.51;45.89;102807.25;5051220;28;20421;-69
2022/01/19 04:03:04;;;;;;;16.77;12.23;;;;;;;2.32;46.24;102806.69;5051139;28;20417;-69
2022/01/19 04:05:41;;;;;;;31.43;28.37;;;;;;;2.27;46.38;102808.53;5050727;28;20853;-69
2022/01/19 04:08:09;;;;;;;21.67;14.50;;;;;;;2.39;46.16;102804.84;5050719;28;20417;-70
2022/01/19 04:10:36;;;;;;;22.15;14.02;;;;;;;2.33;46.11;102805.81;5050551;28;20409;-70
2022/01/19 04:13:23;;;;;;;16.60;11.18;;;;;;;2.33;46.30;102805.81;5050486;28;20906;-70
2022/01/19 04:15:50;;;;;;;15.93;8.95;;;;;;;2.30;46.92;102812.84;5049151;28;20417;-70
2022/01/19 04:18:17;;;;;;;18.80;14.02;;;;;;;2.49;46.46;102819.50;5041349;28;20499;-72
2022/01/19 04:20:49;;;;;;;18.92;13.63;;;;;;;2.40;46.76;102827.50;5035625;28;20854;-70
2022/01/19 04:23:16;;;;;;;23.60;18.25;;;;;;;2.52;46.88;102816.84;5050547;28;20431;-70
2022/01/19 04:25:43;;;;;;;28.67;20.98;;;;;;;2.48;46.66;102820.41;5050323;28;20499;-69
2022/01/19 04:28:11;;;;;;;55.55;50.13;;;;;;;2.46;47.50;102823.94;5050398;28;20925;-70
2022/01/19 04:30:40;;;;;;;61.30;55.37;;;;;;;2.43;47.48;102827.44;5048518;28;20989;-70
2022/01/19 04:33:10;;;;;;;26.75;21.70;;;;;;;2.35;47.38;102824.06;5050132;28;20508;-70
2022/01/19 04:35:50;;;;;;;27.13;21.90;;;;;;;2.37;47.43;102825.81;5050177;28;20455;-70
2022/01/19 05:03:33;;;;;;;22.05;14.35;;;;;;;2.07;49.06;102829.72;5049788;28;20555;-69
2022/01/19 05:06:05;;;;;;;43.53;34.90;;;;;;;2.09;49.37;102819.22;5049532;28;20530;-70
2022/01/19 05:14:12;;;;;;;18.35;12.95;;;;;;;2.14;48.83;102820.88;5042568;28;20462;-70
2022/01/19 05:16:40;;;;;;;35.67;31.80;;;;;;;2.09;48.86;102819.22;5049397;28;20459;-69
2022/01/19 05:19:08;;;;;;;27.70;23.07;;;;;;;2.12;48.88;102817.41;5031264;28;21250;-70
2022/01/19 05:21:35;;;;;;;34.58;23.60;;;;;;;2.20;48.59;102822.56;5049630;28;20911;-71
2022/01/19 05:24:04;;;;;;;49.53;28.52;;;;;;;2.14;48.87;102820.88;5049998;28;20405;-72
2022/01/19 05:26:32;;;;;;;67.90;42.00;;;;;;;2.16;48.79;102823.47;5049154;28;20440;-71
2022/01/19 05:28:59;;;;;;;51.65;44.40;;;;;;;2.06;49.07;102827.09;5049106;28;20514;-71
2022/01/19 05:31:26;;;;;;;32.05;23.23;;;;;;;2.11;49.06;102823.56;5049418;28;20412;-71
2022/01/19 05:33:54;;;;;;;35.70;29.90;;;;;;;2.08;49.22;102836.66;5049044;28;20502;-71
2022/01/19 05:36:22;;;;;;;24.58;16.55;;;;;;;2.11;49.35;102835.75;5049609;28;20496;-71
2022/01/19 05:38:49;;;;;;;33.47;25.52;;;;;;;2.08;49.94;102834.03;5049096;28;20436;-71
2022/01/19 05:41:16;;;;;;;61.97;43.88;;;;;;;2.17;50.06;102841.78;5048920;28;20981;-71
2022/01/19 05:43:43;;;;;;;37.20;29.63;;;;;;;2.11;49.65;102839.25;5049383;28;20408;-71
2022/01/19 05:46:10;;;;;;;33.37;25.27;;;;;;;2.12;49.55;102834.88;5048761;28;21019;-70
2022/01/19 05:48:37;;;;;;;38.10;33.95;;;;;;;2.01;49.90;102829.78;5048528;28;20421;-70
2022/01/19 05:51:05;;;;;;;32.45;24.60;;;;;;;2.06;49.85;102830.59;5048649;28;20843;-71
2022/01/19 05:53:33;;;;;;;26.90;19.67;;;;;;;2.09;50.05;102830.56;5049423;28;20413;-72
2022/01/19 05:56:00;;;;;;;24.52;17.55;;;;;;;2.16;50.04;102836.56;5049138;28;20431;-71
2022/01/19 05:58:26;;;;;;;24.42;17.17;;;;;;;2.36;49.48;102838.91;5048864;28;20941;-70
2022/01/19 06:00:53;;;;;;;26.07;20.07;;;;;;;2.29;49.65;102845.09;5049661;28;20447;-70
2022/01/19 06:03:20;;;;;;;31.63;27.50;;;;;;;2.56;49.25;102847.31;5048861;28;20412;-70
2022/01/19 06:05:47;;;;;;;48.00;42.75;;;;;;;2.81;48.74;102845.16;5051114;28;20408;-70
2022/01/19 06:08:29;;;;;;;30.47;25.37;;;;;;;3.21;47.62;102859.34;5052678;28;20515;-71
2022/01/19 06:10:56;;;;;;;36.53;27.30;;;;;;;3.87;46.27;102857.22;5052788;28;20419;-70
2022/01/19 06:13:25;;;;;;;48.35;36.25;;;;;;;4.65;44.50;102859.91;5052591;28;20412;-71
2022/01/19 06:15:53;;;;;;;46.60;35.80;;;;;;;5.16;43.38;102859.53;5053083;28;20420;-70
2022/01/19 06:18:20;;;;;;;43.78;29.42;;;;;;;5.83;41.70;102857.69;5043883;28;20495;-72
2022/01/19 06:20:48;;;;;;;26.48;20.20;;;;;;;6.48;40.59;102852.31;5044659;28;20427;-72
2022/01/19 06:23:16;;;;;;;37.45;31.70;;;;;;;7.59;38.38;102860.84;5052412;28;20412;-70
2022/01/19 06:25:44;;;;;;;33.03;28.83;;;;;;;8.46;36.52;102860.28;5052929;28;20487;-71
2022/01/19 06:28:11;;;;;;;24.05;15.82;;;;;;;9.47;34.80;102860.47;5052283;28;20503;-70
2022/01/19 06:30:38;;;;;;;25.13;17.10;;;;;;;10.60;32.87;102859.69;5052416;28;20419;-70
2022/01/19 06:33:05;;;;;;;23.48;15.90;;;;;;;11.27;31.37;102855.44;5052365;28;20500;-71
2022/01/19 06:35:33;;;;;;;21.38;16.92;;;;;;;11.67;30.93;102856.03;5052780;28;20491;-71
2022/01/19 06:38:00;;;;;;;23.80;20.37;;;;;;;12.23;29.69;102860.06;5051276;28;20843;-71
2022/01/19 06:40:29;;;;;;;29.48;25.48;;;;;;;13.20;28.27;102869.63;5052476;28;20415;-70
2022/01/19 06:42:56;;;;;;;20.33;14.70;;;;;;;14.10;27.12;102867.69;5052656;28;20506;-70
2022/01/19 06:45:24;;;;;;;22.33;18.83;;;;;;;14.80;26.02;102868.47;5051473;28;20416;-71
2022/01/19 06:47:51;;;;;;;16.35;12.45;;;;;;;15.76;24.68;102865.47;5052353;28;20517;-71
2022/01/19 06:50:20;;;;;;;18.17;13.38;;;;;;;16.51;23.69;102864.53;5052781;28;20421;-71
2022/01/19 06:52:47;;;;;;;16.77;11.68;;;;;;;17.44;22.36;102858.44;5052095;28;20413;-71
2022/01/19 06:55:15;;;;;;;17.50;14.07;;;;;;;17.61;22.31;102849.91;5052464;28;20413;-72
2022/01/19 06:57:45;;;;;;;18.70;14.20;;;;;;;19.18;20.69;102852.31;5052034;28;20495;-71
2022/01/19 07:00:13;;;;;;;25.65;23.05;;;;;;;19.77;19.73;102859.75;5051836;28;20439;-72
2022/01/19 07:02:40;;;;;;;19.25;16.58;;;;;;;20.25;19.45;102842.00;5052005;28;21041;-71
2022/01/19 07:05:08;;;;;;;17.77;14.05;;;;;;;20.23;19.14;102859.28;5052298;28;20499;-71
2022/01/19 07:07:35;;;;;;;18.63;13.63;;;;;;;20.07;18.98;102849.91;5051778;28;20428;-72
2022/01/19 07:10:02;;;;;;;18.98;13.73;;;;;;;20.95;18.13;102844.63;5051785;28;20500;-72
2022/01/19 07:12:29;;;;;;;14.63;11.57;;;;;;;21.09;17.95;102835.25;5051393;28;20420;-72
2022/01/19 07:14:57;;;;;;;15.40;11.85;;;;;;;22.43;17.33;102839.34;5051974;28;20415;-72
2022/01/19 07:17:24;;;;;;;23.23;12.38;;;;;;;23.31;16.24;102835.81;5051349;28;20413;-70
2022/01/19 07:19:51;;;;;;;18.50;11.70;;;;;;;24.27;15.78;102838.28;5041493;28;20503;-72
2022/01/19 07:22:18;;;;;;;15.48;11.57;;;;;;;24.38;15.46;102834.38;5051597;28;20500;-73
2022/01/19 07:24:45;;;;;;;14.30;10.77;;;;;;;24.32;15.25;102829.63;5051022;28;20423;-72
2022/01/19 07:27:12;;;;;;;16.25;10.25;;;;;;;25.33;14.47;102823.03;5051559;28;21000;-72
2022/01/19 07:29:39;;;;;;;14.70;9.80;;;;;;;25.48;14.41;102825.84;5051535;28;20404;-71
2022/01/19 07:32:10;;;;;;;15.65;10.02;;;;;;;25.61;13.85;102828.88;5051704;28;20456;-71
2022/01/19 07:34:37;;;;;;;12.73;9.02;;;;;;;26.47;13.17;102828.91;5051432;28;20416;-72
2022/01/19 07:37:04;;;;;;;13.73;9.15;;;;;;;26.43;13.29;102836.56;5051440;28;20522;-72
2022/01/19 07:39:31;;;;;;;12.15;8.60;;;;;;;26.47;13.57;102832.47;5051544;28;20975;-72
2022/01/19 07:41:59;;;;;;;12.07;8.38;;;;;;;27.07;12.73;102816.31;5051210;28;20413;-71
2022/01/19 07:44:26;;;;;;;11.93;9.03;;;;;;;28.08;12.28;102822.06;5051111;28;20929;-72
2022/01/19 07:46:53;;;;;;;15.63;11.55;;;;;;;27.60;12.74;102814.38;5051110;28;20930;-72
2022/01/19 07:49:21;;;;;;;15.20;9.50;;;;;;;27.00;12.62;102805.34;5051318;28;20420;-71
2022/01/19 07:51:48;;;;;;;14.95;9.38;;;;;;;27.28;12.33;102811.00;5050921;28;20409;-71
2022/01/19 07:54:15;;;;;;;13.48;9.52;;;;;;;27.64;12.29;102807.53;5051367;28;20404;-71
2022/01/19 07:56:42;;;;;;;11.93;8.60;;;;;;;28.06;12.16;102811.41;5051074;28;20408;-72
2022/01/19 07:59:09;;;;;;;14.05;9.10;;;;;;;28.87;11.51;102815.69;5051017;28;20528;-71
2022/01/19 08:01:36;;;;;;;13.45;8.50;;;;;;;29.17;11.47;102819.91;5050657;28;20501;-71
2022/01/19 08:04:03;;;;;;;12.90;8.25;;;;;;;29.39;11.33;102817.13;5050643;28;20906;-71
2022/01/19 08:06:32;;;;;;;11.48;7.97;;;;;;;30.61;10.68;102815.38;5050286;28;20417;-73
2022/01/19 08:08:59;;;;;;;18.17;11.00;;;;;;;30.94;10.34;102820.88;5050411;28;20516;-72
2022/01/19 08:11:26;;;;;;;21.52;11.57;;;;;;;31.49;9.96;102816.94;5050422;28;20487;-72
2022/01/19 08:13:53;;;;;;;13.80;9.57;;;;;;;31.66;9.86;102818.13;5050312;28;20404;-72
2022/01/19 08:16:21;;;;;;;27.60;19.35;;;;;;;32.06;9.53;102817.13;5050672;28;20914;-73
2022/01/19 08:18:48;;;;;;;14.60;10.55;;;;;;;32.76;9.32;102822.50;5050333;28;20420;-72
2022/01/19 08:21:15;;;;;;;15.70;10.10;;;;;;;32.49;8.99;102806.22;5050422;28;20462;-72
2022/01/19 08:23:44;;;;;;;14.48;11.23;;;;;;;32.93;9.04;102807.13;5049388;28;20485;-73
2022/01/19 08:26:13;;;;;;;16.63;12.10;;;;;;;33.34;8.67;102810.31;5051190;28;20417;-72
2022/01/19 08:28:40;;;;;;;13.90;9.98;;;;;;;32.19;9.01;102806.03;5050085;28;20478;-72
2022/01/19 08:31:06;;;;;;;15.47;12.00;;;;;;;33.38;8.70;102805.19;5033692;28;20416;-72
2022/01/19 08:33:34;;;;;;;14.93;10.38;;;;;;;32.45;8.84;102798.69;5050501;28;20856;-72
2022/01/19 08:36:00;;;;;;;12.53;9.07;;;;;;;32.08;8.98;102795.81;5050201;28;20451;-72
2022/01/19 08:38:28;;;;;;;17.75;10.70;;;;;;;31.94;9.22;102795.84;5050233;28;20523;-72
2022/01/19 08:40:56;;;;;;;13.50;8.52;;;;;;;32.31;8.83;102804.28;5050395;28;20408;-73
2022/01/19 08:43:23;;;;;;;13.75;9.63;;;;;;;32.23;8.79;102800.97;5050464;28;20512;-72
2022/01/19 08:45:50;;;;;;;15.38;10.90;;;;;;;31.40;9.26;102801.78;5050304;28;20424;-73
2022/01/19 08:48:18;;;;;;;13.00;8.98;;;;;;;32.22;8.87;102799.28;5048876;28;20507;-72
2022/01/19 08:50:45;;;;;;;14.60;10.38;;;;;;;32.69;8.48;102797.88;5050233;28;20492;-72
2022/01/19 08:53:12;;;;;;;15.00;8.95;;;;;;;33.36;8.23;102796.34;5049716;28;20776;-73
2022/01/19 08:55:40;;;;;;;12.88;8.93;;;;;;;32.72;8.58;102793.81;5050554;28;20487;-72
2022/01/19 08:58:10;;;;;;;15.77;9.88;;;;;;;32.23;8.95;102796.31;5050167;28;20507;-73
2022/01/19 09:00:37;;;;;;;13.07;8.93;;;;;;;33.65;8.02;102798.28;5049669;28;20957;-73
2022/01/19 09:03:04;;;;;;;12.85;9.05;;;;;;;32.67;8.49;102801.91;5049962;28;20976;-73
2022/01/19 09:05:31;;;;;;;12.88;9.18;;;;;;;33.71;8.07;102791.88;5049692;28;20413;-73
2022/01/19 09:07:58;;;;;;;16.27;9.70;;;;;;;32.94;8.16;102789.56;5048596;28;20532;-73
2022/01/19 09:10:25;;;;;;;13.43;9.65;;;;;;;33.25;8.09;102787.78;5049821;28;20405;-73
2022/01/19 09:12:53;;;;;;;14.32;11.13;;;;;;;33.31;8.00;102786.88;5049529;28;20412;-72
2022/01/19 09:15:23;;;;;;;16.75;11.70;;;;;;;33.90;7.82;102783.56;5049787;28;20504;-73
2022/01/19 09:17:52;;;;;;;16.83;10.63;;;;;;;33.81;7.80;102788.56;5048010;28;20460;-74
2022/01/19 09:20:19;;;;;;;14.00;11.15;;;;;;;33.83;7.82;102789.16;5049429;28;20455;-73
2022/01/19 09:22:48;;;;;;;14.50;9.95;;;;;;;34.59;7.62;102785.84;5049446;28;20499;-73
2022/01/19 09:25:16;;;;;;;12.90;9.30;;;;;;;34.69;7.29;102789.75;5049305;28;20991;-74
2022/01/19 09:27:43;;;;;;;12.53;8.53;;;;;;;33.86;7.53;102783.22;5049262;28;20503;-73
2022/01/19 09:30:14;;;;;;;15.63;8.47;;;;;;;34.32;7.39;102784.41;5033319;28;20934;-74
2022/01/19 09:32:44;;;;;;;13.38;9.95;;;;;;;35.20;7.31;102770.78;5048587;28;20834;-71
2022/01/19 09:35:11;;;;;;;17.33;12.38;;;;;;;35.74;6.76;102753.91;5048296;28;20466;-72
2022/01/19 09:37:41;;;;;;;19.55;13.63;;;;;;;34.99;7.47;102760.38;5049162;28;20866;-73
2022/01/19 09:40:09;;;;;;;16.95;10.23;;;;;;;35.09;7.20;102747.63;5049153;28;20447;-73
2022/01/19 09:42:36;;;;;;;14.77;9.52;;;;;;;35.01;7.22;102752.69;5049544;28;20484;-71
2022/01/19 09:45:04;;;;;;;12.77;8.27;;;;;;;34.94;6.91;102744.56;5049615;28;20495;-74
2022/01/19 09:47:30;;;;;;;14.20;9.00;;;;;;;34.01;7.47;102751.69;5049045;28;20416;-72
2022/01/19 09:49:59;;;;;;;15.13;9.50;;;;;;;35.93;6.67;102745.41;5049392;28;20420;-73
2022/01/19 09:52:26;;;;;;;17.00;11.20;;;;;;;35.24;6.75;102741.66;5048917;28;20504;-73
2022/01/19 09:54:55;;;;;;;14.32;10.75;;;;;;;34.77;7.22;102730.69;5048969;28;20419;-72
2022/01/19 09:57:22;;;;;;;14.73;9.40;;;;;;;35.03;7.15;102726.56;5047824;28;20404;-72
2022/01/19 09:59:49;;;;;;;13.35;8.18;;;;;;;33.05;7.98;102721.25;5049390;28;20859;-73
2022/01/19 10:02:17;;;;;;;16.48;9.70;;;;;;;34.56;7.54;102715.63;5049094;28;20488;-72
2022/01/19 10:04:47;;;;;;;13.65;8.20;;;;;;;34.47;7.17;102706.91;5048883;28;20432;-73
2022/01/19 10:07:18;;;;;;;20.17;16.35;;;;;;;33.09;7.40;102701.38;5048632;28;20444;-72
2022/01/19 10:09:58;;;;;;;14.07;9.30;;;;;;;31.52;8.11;102706.94;5048003;28;20795;-71
2022/01/19 10:18:12;;;;;;;10.85;8.50;;;;;;;32.40;7.76;102691.53;5048840;28;20412;-72
2022/01/19 10:20:40;;;;;;;10.52;8.70;;;;;;;33.08;7.69;102687.84;5048929;28;20408;-72
2022/01/19 10:23:28;;;;;;;11.18;9.10;;;;;;;30.38;9.13;102683.72;5048632;28;20504;-72
2022/01/19 10:25:55;;;;;;;9.98;7.15;;;;;;;31.66;8.04;102675.66;5048709;28;20424;-72
2022/01/19 10:28:22;;;;;;;9.88;7.03;;;;;;;31.61;8.33;102675.50;5048976;28;20520;-73
2022/01/19 10:30:49;;;;;;;10.95;7.57;;;;;;;31.11;8.36;102672.59;5024115;28;20427;-73
2022/01/19 10:33:19;;;;;;;9.68;6.97;;;;;;;31.49;8.14;102669.03;5048993;28;20412;-72
2022/01/19 10:35:48;;;;;;;13.73;8.50;;;;;;;30.30;8.91;102669.19;5048368;28;20412;-72
2022/01/19 10:38:23;;;;;;;11.90;9.07;;;;;;;29.00;9.41;102664.91;5048783;28;20408;-72
2022/01/19 10:41:08;;;;;;;12.27;7.70;;;;;;;21.63;14.47;102644.84;5048411;28;20933;-71
2022/01/19 10:43:39;;;;;;;12.70;8.33;;;;;;;21.04;14.67;102648.88;5048504;28;20413;-72
2022/01/19 10:46:27;;;;;;;18.67;10.97;;;;;;;22.97;13.30;102645.53;5046844;28;20412;-72
2022/01/19 10:49:02;;;;;;;13.20;11.37;;;;;;;25.22;11.69;102642.50;5048488;28;20428;-72
2022/01/19 10:51:36;;;;;;;12.88;9.05;;;;;;;20.21;15.46;102645.00;5050410;28;21016;-72
2022/01/19 10:54:11;;;;;;;12.18;10.60;;;;;;;20.47;15.38;102633.59;5052391;28;20495;-72
2022/01/19 10:56:38;;;;;;;14.07;10.20;;;;;;;18.38;16.71;102618.31;5052353;28;20432;-71
2022/01/19 10:59:09;;;;;;;12.45;9.73;;;;;;;18.67;16.72;102616.78;5052407;28;20495;-73
2022/01/19 11:01:45;;;;;;;16.30;10.30;;;;;;;21.28;14.75;102618.69;5051717;28;20421;-72
2022/01/19 11:04:26;;;;;;;18.33;15.70;;;;;;;23.85;12.67;102616.38;5051822;28;20440;-72
2022/01/19 11:06:56;;;;;;;14.45;9.95;;;;;;;21.96;14.37;102599.31;5052138;28;20456;-72
2022/01/19 11:09:28;;;;;;;14.00;8.02;;;;;;;24.63;12.74;102598.66;5050666;28;20432;-72
2022/01/19 11:11:57;;;;;;;16.92;13.82;;;;;;;25.60;11.96;102585.63;5051689;28;20478;-73
2022/01/19 11:14:26;;;;;;;57.15;51.38;;;;;;;24.74;11.70;102590.19;5051796;28;20413;-74
2022/01/19 11:16:53;;;;;;;10.45;7.75;;;;;;;24.46;12.21;102581.59;5051590;28;20466;-72
2022/01/19 11:19:21;;;;;;;22.98;20.52;;;;;;;25.61;11.62;102570.16;5051893;28;20492;-72
2022/01/19 11:21:59;;;;;;;13.00;9.68;;;;;;;25.31;12.01;102565.47;5050735;28;20417;-72
2022/01/19 11:24:34;;;;;;;11.00;6.15;;;;;;;21.26;14.85;102562.22;5050516;28;20413;-73
2022/01/19 11:27:03;;;;;;;11.13;6.35;;;;;;;18.05;17.34;102557.69;5050664;28;20424;-72
2022/01/19 11:29:31;;;;;;;11.35;6.75;;;;;;;18.69;16.75;102555.75;5050755;28;20806;-73
2022/01/19 11:32:00;;;;;;;18.65;14.45;;;;;;;17.75;17.32;102558.44;5031102;28;20421;-71
2022/01/19 11:34:42;;;;;;;16.23;14.40;;;;;;;16.19;18.70;102541.50;5051392;28;20409;-74
2022/01/19 11:37:10;;;;;;;224.90;203.43;;;;;;;15.75;19.59;102550.25;5051474;28;20503;-72
2022/01/19 11:39:58;;;;;;;17.52;12.15;;;;;;;15.80;19.41;102551.63;5051212;28;20416;-73
2022/01/19 11:42:25;;;;;;;13.82;8.40;;;;;;;13.97;21.42;102547.81;5051437;28;20412;-72
2022/01/19 11:44:52;;;;;;;31.08;27.73;;;;;;;14.85;20.89;102539.94;5051126;28;20511;-74
2022/01/19 11:47:25;;;;;;;14.35;8.80;;;;;;;14.20;21.12;102524.94;5050902;28;20436;-73
2022/01/19 11:49:55;;;;;;;20.00;17.83;;;;;;;14.57;20.93;102525.88;5051119;28;20432;-73
2022/01/19 11:52:25;;;;;;;16.92;9.75;;;;;;;14.75;20.78;102512.22;5051101;28;20910;-73
2022/01/19 11:55:11;;;;;;;13.15;10.48;;;;;;;15.07;20.71;102520.56;5051109;28;21009;-73
2022/01/19 11:57:40;;;;;;;28.27;25.50;;;;;;;15.43;20.17;102518.78;5050100;28;20407;-74
2022/01/19 12:00:22;;;;;;;13.75;7.50;;;;;;;15.38;19.93;102518.28;5050723;28;20404;-74
2022/01/19 12:02:54;;;;;;;12.18;9.10;;;;;;;14.99;20.20;102513.09;5049792;28;20452;-73
2022/01/19 12:05:26;;;;;;;13.73;8.65;;;;;;;14.45;20.45;102516.06;5050896;28;20926;-72
2022/01/19 12:07:57;;;;;;;15.38;12.23;;;;;;;14.14;21.07;102523.53;5052327;28;20424;-73
2022/01/19 12:10:44;;;;;;;21.23;16.05;;;;;;;13.86;21.44;102519.25;5052588;28;20801;-73
2022/01/19 12:16:55;;;;;;;32.70;26.50;;;;;;;13.46;22.38;102510.44;5104248;27;20553;-72
2022/01/19 12:19:27;;;;;;;16.33;12.45;;;;;;;13.47;22.56;102501.50;5101211;28;20411;-70
2022/01/19 12:22:05;;;;;;;12.43;8.35;;;;;;;12.72;23.26;102515.19;5100443;28;20511;-70
2022/01/19 12:24:36;;;;;;;21.85;19.45;;;;;;;12.78;23.14;102504.16;5102302;28;20423;-73
2022/01/19 12:27:08;;;;;;;21.17;19.00;;;;;;;12.70;23.16;102495.81;5103925;28;20975;-72
2022/01/19 12:30:02;;;;;;;12.17;8.67;;;;;;;12.09;23.70;102506.63;5099487;28;20450;-72
2022/01/19 12:32:52;;;;;;;15.95;12.00;;;;;;;12.49;23.43;102504.19;5088728;28;20422;-72
2022/01/19 12:35:22;;;;;;;15.93;10.20;;;;;;;12.20;23.72;102493.53;5103134;28;20504;-72
2022/01/19 12:37:51;;;;;;;14.13;8.63;;;;;;;12.15;24.17;102500.94;5113474;28;20482;-73
2022/01/19 12:40:48;;;;;;;17.38;10.40;;;;;;;12.06;24.19;102496.19;5111473;28;20420;-73
2022/01/19 12:43:36;;;;;;;18.03;11.03;;;;;;;12.37;23.93;102494.31;5107504;28;20412;-72
2022/01/19 12:46:06;;;;;;;17.05;9.85;;;;;;;12.34;23.89;102499.81;5110277;28;20468;-70
2022/01/19 12:48:38;;;;;;;12.90;7.80;;;;;;;12.63;23.58;102490.88;5108154;28;20489;-71
2022/01/19 12:51:06;;;;;;;12.35;7.30;;;;;;;12.46;23.77;102492.88;5101331;28;20406;-76
2022/01/19 12:53:33;;;;;;;21.00;11.13;;;;;;;12.14;24.88;102477.97;5096428;28;20410;-80